Terminal Aerodrome Forecast
Issued by NWS

Home | Current Version | Previous Version | Text Only | Print | Product List | Glossary On
Versions: 1 2 3 4 5 6 7 8 9 10 11 12 13 14 15 16 17 18 19 20 21 22 23 24 25 26 27 28 29 30 31 32 33 34 35 36 37 38 39 40 41
000
FTUS43 KDTX 210536
TAFPTK
TAF
KPTK 210536Z 2106/2206 32008KT P6SM OVC015
     FM211400 34011G20KT P6SM OVC025
     FM212100 35015KT P6SM BKN050
     FM220100 01010KT P6SM SCT050=

USA.gov is the U.S. government's official web portal to all federal, state and local government web resources and services.